createdAt,value
2022-09-02T00:00:09.760Z,45.35
2022-09-02T00:02:38.436Z,45.66
2022-09-02T00:05:07.709Z,45.37
2022-09-02T00:07:37.247Z,45.96
2022-09-02T00:10:06.693Z,45.98
2022-09-02T00:12:35.284Z,44.71
2022-09-02T00:15:05.879Z,45.95
2022-09-02T00:17:35.222Z,45.75
2022-09-02T00:20:04.604Z,46.25
2022-09-02T00:22:34.170Z,45.18
2022-09-02T00:25:02.218Z,47.34
2022-09-02T00:27:31.333Z,46.44
2022-09-02T00:29:59.192Z,46.88
2022-09-02T00:32:31.059Z,45.39
2022-09-02T00:35:00.336Z,46.96
2022-09-02T00:37:31.563Z,45.48
2022-09-02T00:40:02.307Z,46.77
2022-09-02T00:42:30.202Z,46.02
2022-09-02T00:44:59.397Z,46.54
2022-09-02T00:47:27.444Z,46.96
2022-09-02T00:49:56.258Z,46.90
2022-09-02T00:52:29.685Z,47.58
2022-09-02T00:55:06.316Z,47.45
2022-09-02T00:57:44.694Z,47.20
2022-09-02T01:00:38.407Z,48.09
2022-09-02T01:03:11.809Z,48.19
2022-09-02T01:05:45.917Z,49.37
2022-09-02T01:08:24.592Z,48.45
2022-09-02T01:10:56.053Z,48.98
2022-09-02T01:13:29.837Z,49.73
2022-09-02T01:16:30.224Z,50.29
2022-09-02T01:19:02.065Z,49.54
2022-09-02T01:21:30.257Z,48.78
2022-09-02T01:24:00.203Z,49.58
2022-09-02T01:26:29.170Z,50.06
2022-09-02T01:28:58.235Z,49.83
2022-09-02T01:31:27.317Z,49.37
2022-09-02T01:33:55.565Z,48.60
2022-09-02T01:36:24.814Z,49.89
2022-09-02T01:38:55.750Z,49.59
2022-09-02T01:41:24.919Z,49.28
2022-09-02T01:43:53.280Z,49.93
2022-09-02T01:46:23.815Z,50.58
2022-09-02T01:48:52.167Z,49.97
2022-09-02T01:51:21.834Z,51.07
2022-09-02T01:53:50.569Z,52.12
2022-09-02T01:56:19.791Z,52.32
2022-09-02T01:58:48.168Z,52.44
2022-09-02T02:01:17.325Z,51.88
2022-09-02T02:03:47.582Z,51.25
2022-09-02T02:06:18.371Z,51.82
2022-09-02T02:08:47.085Z,51.33
2022-09-02T02:11:26.510Z,50.39
2022-09-02T02:13:55.071Z,50.30
2022-09-02T02:16:24.409Z,51.38
2022-09-02T02:18:52.242Z,51.16
2022-09-02T02:21:21.803Z,52.46
2022-09-02T02:23:52.016Z,51.90
2022-09-02T02:26:20.446Z,52.40
2022-09-02T02:28:50.020Z,52.63
2022-09-02T02:31:18.351Z,52.21
2022-09-02T02:33:47.877Z,53.71
2022-09-02T02:36:18.030Z,52.78
2022-09-02T02:38:46.995Z,52.53
2022-09-02T02:41:15.742Z,53.63
2022-09-02T02:43:46.075Z,52.39
2022-09-02T02:46:15.696Z,51.63
2022-09-02T02:48:44.480Z,51.23
2022-09-02T02:51:12.320Z,51.46
2022-09-02T02:53:40.701Z,53.30
2022-09-02T02:56:10.104Z,52.80
2022-09-02T02:58:41.062Z,53.86
2022-09-02T03:01:11.114Z,54.31
2022-09-02T03:03:40.381Z,53.45
2022-09-02T03:06:08.274Z,54.19
2022-09-02T03:08:37.755Z,53.99
2022-09-02T03:11:08.915Z,54.33
2022-09-02T03:13:38.160Z,53.49
2022-09-02T03:16:07.154Z,53.68
2022-09-02T03:18:37.253Z,52.25
2022-09-02T03:21:08.609Z,52.34
2022-09-02T03:23:39.494Z,53.90
2022-09-02T03:26:26.483Z,53.66
2022-09-02T03:29:00.465Z,53.81
2022-09-02T03:31:28.854Z,55.36
2022-09-02T03:33:58.019Z,56.14
2022-09-02T03:36:33.996Z,55.78
2022-09-02T03:39:04.518Z,56.53
2022-09-02T03:41:32.406Z,56.83
2022-09-02T03:44:03.111Z,57.21
2022-09-02T03:46:31.481Z,57.57
2022-09-02T03:49:00.270Z,58.28
2022-09-02T03:51:29.339Z,57.73
2022-09-02T03:53:57.482Z,57.08
2022-09-02T03:56:26.564Z,57.64
2022-09-02T03:58:55.748Z,58.11
2022-09-02T04:01:27.969Z,58.61
2022-09-02T04:04:00.192Z,59.02
2022-09-02T04:06:32.623Z,58.47
2022-09-02T04:09:02.409Z,58.32
2022-09-02T04:11:31.689Z,59.65
2022-09-02T04:14:00.485Z,58.05
2022-09-02T04:16:29.992Z,58.63
2022-09-02T04:19:02.168Z,57.72
2022-09-02T04:21:35.586Z,56.51
2022-09-02T04:24:07.519Z,56.40
2022-09-02T04:26:44.942Z,53.80
2022-09-02T04:29:14.347Z,55.39
2022-09-02T04:31:47.054Z,55.72
2022-09-02T04:34:30.356Z,55.86
2022-09-02T04:36:59.917Z,56.30
2022-09-02T04:39:28.352Z,56.26
2022-09-02T04:41:57.601Z,56.28
2022-09-02T04:44:27.829Z,56.19
2022-09-02T04:46:56.398Z,55.85
2022-09-02T04:49:25.818Z,54.67
2022-09-02T04:51:55.718Z,55.17
2022-09-02T04:54:24.455Z,55.56
2022-09-02T04:56:53.681Z,55.17
2022-09-02T04:59:22.221Z,55.99
2022-09-02T05:01:51.330Z,54.22
2022-09-02T05:04:20.238Z,53.42
2022-09-02T05:06:48.371Z,53.95
2022-09-02T05:09:17.341Z,51.46
2022-09-02T05:11:48.237Z,52.51
2022-09-02T05:14:16.691Z,51.55
2022-09-02T05:16:46.315Z,52.08
2022-09-02T05:19:14.647Z,52.06
2022-09-02T05:21:44.984Z,51.42
2022-09-02T05:24:13.331Z,50.99
2022-09-02T05:26:47.528Z,51.73
2022-09-02T05:29:17.996Z,50.32
2022-09-02T05:31:49.153Z,51.08
2022-09-02T05:34:18.886Z,51.69
2022-09-02T05:36:48.036Z,52.49
2022-09-02T05:39:17.543Z,51.91
2022-09-02T05:41:46.209Z,50.38
2022-09-02T05:44:15.035Z,49.95
2022-09-02T05:46:48.099Z,48.93
2022-09-02T05:49:22.260Z,51.22
2022-09-02T05:51:55.851Z,51.48
2022-09-02T05:54:30.416Z,50.42
2022-09-02T05:57:07.027Z,47.42
2022-09-02T05:59:39.304Z,46.51
2022-09-02T06:02:13.176Z,46.47
2022-09-02T06:04:45.718Z,48.93
2022-09-02T06:07:15.855Z,47.24
2022-09-02T06:09:45.115Z,46.44
2022-09-02T06:12:18.008Z,46.01
2022-09-02T06:14:48.872Z,43.05
2022-09-02T06:17:18.473Z,45.94
2022-09-02T06:19:46.244Z,45.15
2022-09-02T06:22:15.311Z,45.45
2022-09-02T06:24:43.207Z,45.08
2022-09-02T06:27:11.210Z,43.36
2022-09-02T06:29:40.542Z,43.47
2022-09-02T06:32:10.951Z,45.51
2022-09-02T06:34:39.557Z,43.72
2022-09-02T06:37:08.587Z,44.25
2022-09-02T06:39:38.354Z,44.53
2022-09-02T06:42:06.166Z,44.01
2022-09-02T06:44:34.520Z,42.86
2022-09-02T06:47:03.015Z,42.54
2022-09-02T06:49:30.842Z,43.55
2022-09-02T06:52:00.535Z,41.27
2022-09-02T06:54:28.924Z,40.52
2022-09-02T06:56:57.254Z,39.15
2022-09-02T06:59:25.261Z,38.69
2022-09-02T07:01:52.966Z,40.02
2022-09-02T07:04:42.203Z,38.02
2022-09-02T07:07:12.174Z,35.77
2022-09-02T07:09:39.705Z,38.58
2022-09-02T07:12:08.852Z,34.70
2022-09-02T07:14:39.557Z,37.19
2022-09-02T07:17:10.444Z,36.63
2022-09-02T07:19:40.136Z,36.25
2022-09-02T07:22:07.918Z,36.38
2022-09-02T07:24:37.577Z,36.59
2022-09-02T07:27:06.702Z,35.80
2022-09-02T07:29:35.663Z,33.59
2022-09-02T07:32:03.662Z,35.60
2022-09-02T07:34:34.846Z,34.88
2022-09-02T07:37:06.195Z,35.34
2022-09-02T07:39:40.717Z,34.41
2022-09-02T07:42:11.936Z,33.23
2022-09-02T07:44:39.539Z,35.81
2022-09-02T07:47:07.498Z,34.96
2022-09-02T07:52:24.035Z,34.23
2022-09-02T07:54:52.152Z,33.43
2022-09-02T07:57:20.785Z,32.24
2022-09-02T07:59:48.902Z,33.35
2022-09-02T08:02:18.902Z,34.58
2022-09-02T08:04:46.968Z,33.03
2022-09-02T08:07:14.827Z,30.93
2022-09-02T08:09:42.406Z,31.25
2022-09-02T08:12:10.959Z,32.50
2022-09-02T08:14:38.614Z,33.41
2022-09-02T08:17:06.365Z,33.62
2022-09-02T08:19:34.393Z,32.78
2022-09-02T08:22:08.763Z,31.51
2022-09-02T08:24:36.649Z,32.03
2022-09-02T08:27:04.202Z,33.42
2022-09-02T08:29:32.084Z,32.09
2022-09-02T08:32:02.495Z,32.03
2022-09-02T08:34:31.748Z,32.10
2022-09-02T08:36:59.539Z,32.44
2022-09-02T08:39:27.984Z,32.38
2022-09-02T08:42:19.335Z,32.35
2022-09-02T08:44:49.328Z,32.89
2022-09-02T08:47:23.185Z,32.76
2022-09-02T08:49:56.388Z,33.26
2022-09-02T08:52:54.293Z,32.47
2022-09-02T08:55:28.264Z,31.11
2022-09-02T08:57:57.809Z,31.76
2022-09-02T09:00:25.394Z,30.94
2022-09-02T09:03:17.837Z,30.98
2022-09-02T09:06:07.562Z,30.42
2022-09-02T09:08:58.013Z,30.71
2022-09-02T09:11:52.542Z,30.75
2022-09-02T09:14:21.053Z,30.85
2022-09-02T09:17:01.225Z,30.25
2022-09-02T09:19:33.518Z,30.56
2022-09-02T09:22:03.703Z,30.22
2022-09-02T09:24:33.067Z,29.46
2022-09-02T09:27:05.011Z,29.79
2022-09-02T09:29:36.480Z,28.53
2022-09-02T09:32:11.222Z,28.82
2022-09-02T09:34:52.561Z,28.64
2022-09-02T09:37:40.044Z,28.35
2022-09-02T09:40:25.909Z,28.59
2022-09-02T09:43:09.997Z,27.94
2022-09-02T09:45:46.481Z,28.46
2022-09-02T09:48:23.705Z,28.47
2022-09-02T09:50:58.064Z,27.45
2022-09-02T09:53:32.633Z,27.62
2022-09-02T09:56:06.823Z,27.78
2022-09-02T09:58:46.968Z,29.56
2022-09-02T10:01:23.342Z,27.76
2022-09-02T10:04:42.316Z,27.42
2022-09-02T10:07:02.076Z,27.92
2022-09-02T10:09:34.663Z,28.39
2022-09-02T10:12:08.635Z,27.49
2022-09-02T10:14:46.524Z,27.54
2022-09-02T10:17:48.883Z,27.10
2022-09-02T10:23:57.218Z,25.61
2022-09-02T10:26:34.110Z,26.88
2022-09-02T10:29:33.611Z,26.73
2022-09-02T10:32:48.587Z,26.70
2022-09-02T10:35:35.942Z,25.42
2022-09-02T10:38:43.990Z,25.67
2022-09-02T10:41:35.026Z,26.06
2022-09-02T10:44:26.846Z,25.02
2022-09-02T10:47:15.993Z,25.60
2022-09-02T10:50:04.608Z,26.20
2022-09-02T10:52:54.657Z,25.02
2022-09-02T10:55:56.464Z,26.07
2022-09-02T10:58:51.717Z,26.22
2022-09-02T11:01:31.919Z,25.05
2022-09-02T11:04:34.875Z,25.06
2022-09-02T11:07:17.549Z,25.09
2022-09-02T11:10:08.767Z,26.12
2022-09-02T11:12:44.480Z,25.59
2022-09-02T11:15:45.753Z,26.12
2022-09-02T11:18:45.501Z,25.61
2022-09-02T11:21:50.722Z,25.92
2022-09-02T11:24:46.575Z,26.36
2022-09-02T11:27:42.639Z,25.24
2022-09-02T11:30:24.898Z,26.22
2022-09-02T11:33:13.363Z,25.50
2022-09-02T11:35:45.255Z,26.79
2022-09-02T11:38:19.086Z,25.50
2022-09-02T11:41:35.846Z,25.81
2022-09-02T11:44:31.311Z,25.18
2022-09-02T11:47:16.834Z,25.15
2022-09-02T11:50:02.357Z,25.25
2022-09-02T11:52:41.211Z,26.00
2022-09-02T11:55:17.427Z,25.26
2022-09-02T11:57:54.403Z,25.25
2022-09-02T12:00:37.059Z,24.56
2022-09-02T12:03:11.957Z,25.42
2022-09-02T12:05:48.071Z,24.49
2022-09-02T12:08:36.993Z,25.21
2022-09-02T12:11:07.180Z,24.47
2022-09-02T12:13:43.754Z,23.94
2022-09-02T12:16:24.436Z,23.94
2022-09-02T12:18:54.405Z,23.24
2022-09-02T12:21:24.264Z,22.98
2022-09-02T12:23:58.271Z,23.93
2022-09-02T12:26:28.694Z,23.05
2022-09-02T12:29:25.147Z,22.50
2022-09-02T12:31:54.095Z,22.07
2022-09-02T12:34:27.800Z,22.05
2022-09-02T12:37:02.928Z,21.64
2022-09-02T12:39:35.623Z,20.99
2022-09-02T12:42:12.811Z,20.46
2022-09-02T12:45:00.213Z,20.42
2022-09-02T12:47:32.707Z,19.55
2022-09-02T12:50:27.374Z,19.78
2022-09-02T12:53:36.031Z,19.47
2022-09-02T12:56:07.105Z,18.84
2022-09-02T12:58:41.521Z,19.21
2022-09-02T13:01:28.039Z,18.99
2022-09-02T13:04:14.602Z,19.60
2022-09-02T13:06:46.803Z,20.03
2022-09-02T13:09:54.090Z,19.22
2022-09-02T13:12:32.011Z,19.53
2022-09-02T13:15:23.471Z,19.54
2022-09-02T13:18:09.998Z,19.68
2022-09-02T13:21:14.745Z,19.07
2022-09-02T13:23:54.784Z,19.39
2022-09-02T13:26:50.239Z,18.87
2022-09-02T13:30:10.512Z,18.38
2022-09-02T13:32:39.454Z,19.51
2022-09-02T13:35:21.479Z,20.25
2022-09-02T13:37:59.908Z,19.97
2022-09-02T13:40:27.838Z,19.89
2022-09-02T13:43:03.335Z,19.32
2022-09-02T13:45:35.253Z,19.43
2022-09-02T13:48:15.967Z,19.46
2022-09-02T13:50:55.413Z,20.12
2022-09-02T13:56:27.644Z,19.91
2022-09-02T13:58:57.423Z,19.59
2022-09-02T14:01:29.214Z,19.79
2022-09-02T14:04:00.531Z,19.69
2022-09-02T14:06:38.702Z,20.30
2022-09-02T14:09:19.031Z,21.07
2022-09-02T14:11:48.577Z,20.92
2022-09-02T14:14:22.604Z,21.82
2022-09-02T14:16:50.647Z,22.17
2022-09-02T14:19:18.948Z,22.88
2022-09-02T14:22:01.003Z,23.06
2022-09-02T14:24:40.339Z,24.05
2022-09-02T14:27:20.351Z,24.57
2022-09-02T14:29:55.318Z,24.08
2022-09-02T14:32:28.007Z,25.14
2022-09-02T14:35:24.172Z,24.26
2022-09-02T14:37:56.383Z,25.66
2022-09-02T14:40:37.380Z,26.07
2022-09-02T14:43:17.882Z,25.65
2022-09-02T14:45:50.100Z,25.53
2022-09-02T14:48:27.221Z,26.14
2022-09-02T14:51:05.844Z,26.54
2022-09-02T14:53:37.986Z,26.45
2022-09-02T14:56:07.057Z,26.89
2022-09-02T14:58:36.818Z,26.43
2022-09-02T15:01:10.093Z,26.72
2022-09-02T15:03:39.595Z,27.68
2022-09-02T15:06:13.142Z,27.24
2022-09-02T15:08:45.098Z,27.72
2022-09-02T15:11:18.618Z,27.76
2022-09-02T15:13:47.285Z,28.10
2022-09-02T15:16:17.694Z,28.38
2022-09-02T15:18:46.403Z,28.42
2022-09-02T15:21:16.821Z,28.45
2022-09-02T15:23:50.966Z,28.39
2022-09-02T15:26:20.599Z,28.81
2022-09-02T15:28:54.457Z,29.51
2022-09-02T15:31:24.782Z,28.94
2022-09-02T15:33:53.351Z,28.90
2022-09-02T15:36:21.573Z,29.14
2022-09-02T15:38:51.137Z,28.45
2022-09-02T15:41:22.445Z,28.66
2022-09-02T15:43:54.142Z,28.89
2022-09-02T15:46:29.523Z,29.38
2022-09-02T15:49:05.116Z,29.23
2022-09-02T15:51:36.312Z,29.72
2022-09-02T15:54:08.771Z,29.74
2022-09-02T15:56:40.768Z,30.08
2022-09-02T15:59:13.741Z,30.32
2022-09-02T16:01:46.560Z,30.73
2022-09-02T16:04:16.571Z,30.25
2022-09-02T16:06:48.593Z,31.05
2022-09-02T16:09:18.612Z,30.52
2022-09-02T16:11:53.607Z,31.51
2022-09-02T16:14:24.975Z,32.17
2022-09-02T16:16:56.253Z,31.92
2022-09-02T16:19:30.197Z,31.50
2022-09-02T16:22:01.543Z,31.61
2022-09-02T16:24:30.934Z,31.05
2022-09-02T16:26:59.437Z,31.69
2022-09-02T16:29:31.283Z,32.00
2022-09-02T16:32:21.455Z,31.81
2022-09-02T16:34:50.321Z,31.85
2022-09-02T16:37:19.674Z,31.98
2022-09-02T16:39:50.439Z,32.23
2022-09-02T16:42:19.610Z,31.99
2022-09-02T16:44:53.508Z,32.54
2022-09-02T16:47:22.596Z,32.30
2022-09-02T16:49:51.485Z,32.60
2022-09-02T16:52:20.868Z,32.62
2022-09-02T16:54:49.975Z,33.34
2022-09-02T16:57:19.076Z,32.73
2022-09-02T16:59:47.355Z,32.99
2022-09-02T17:02:16.804Z,32.65
2022-09-02T17:04:45.314Z,32.32
2022-09-02T17:07:14.442Z,32.30
2022-09-02T17:09:44.826Z,32.73
2022-09-02T17:12:14.540Z,32.23
2022-09-02T17:14:43.803Z,32.36
2022-09-02T17:17:17.698Z,32.25
2022-09-02T17:19:48.440Z,32.48
2022-09-02T17:22:17.748Z,32.11
2022-09-02T17:24:53.510Z,32.47
2022-09-02T17:27:22.799Z,32.64
2022-09-02T17:29:51.923Z,32.36
2022-09-02T17:32:20.763Z,32.17
2022-09-02T17:34:55.828Z,31.74
2022-09-02T17:37:33.367Z,32.64
2022-09-02T17:40:45.169Z,31.59
2022-09-02T17:43:14.383Z,32.18
2022-09-02T17:45:43.573Z,31.40
2022-09-02T17:48:45.135Z,31.87
2022-09-02T17:51:11.723Z,31.95
2022-09-02T17:53:40.405Z,32.50
2022-09-02T17:56:39.487Z,31.68
2022-09-02T17:59:52.430Z,32.50
2022-09-02T18:02:36.304Z,31.84
2022-09-02T18:05:28.922Z,32.23
2022-09-02T18:08:19.894Z,31.04
2022-09-02T18:10:57.816Z,31.62
2022-09-02T18:13:54.154Z,31.73
2022-09-02T18:16:31.177Z,31.07
2022-09-02T18:19:21.047Z,30.79
2022-09-02T18:22:06.390Z,31.61
2022-09-02T18:25:02.099Z,30.67
2022-09-02T18:27:59.981Z,31.01
2022-09-02T18:31:00.665Z,31.65
2022-09-02T18:34:04.566Z,31.96
2022-09-02T18:36:46.294Z,31.43
2022-09-02T18:39:28.192Z,32.56
2022-09-02T18:42:29.800Z,31.20
2022-09-02T18:45:01.106Z,31.26
2022-09-02T18:47:37.665Z,31.88
2022-09-02T18:50:22.099Z,31.49
2022-09-02T18:53:01.372Z,30.87
2022-09-02T18:55:38.636Z,31.76
2022-09-02T18:58:12.736Z,31.12
2022-09-02T19:00:50.832Z,32.16
2022-09-02T19:03:21.640Z,32.27
2022-09-02T19:05:49.712Z,32.34
2022-09-02T19:08:33.945Z,30.93
2022-09-02T19:11:32.461Z,31.50
2022-09-02T19:14:13.094Z,30.99
2022-09-02T19:16:41.385Z,30.71
2022-09-02T19:19:13.731Z,31.69
2022-09-02T19:22:01.011Z,32.19
2022-09-02T19:24:47.239Z,31.55
2022-09-02T19:27:22.426Z,31.59
2022-09-02T19:29:59.127Z,31.38
2022-09-02T19:32:30.416Z,31.71
2022-09-02T19:35:01.627Z,33.19
2022-09-02T19:37:30.716Z,33.02
2022-09-02T19:40:07.758Z,31.07
2022-09-02T19:42:37.397Z,32.67
2022-09-02T19:45:05.753Z,31.52
2022-09-02T19:48:05.416Z,31.99
2022-09-02T19:50:26.113Z,31.16
2022-09-02T19:52:54.212Z,32.89
2022-09-02T19:55:22.384Z,33.11
2022-09-02T19:57:52.124Z,31.62
2022-09-02T20:00:20.644Z,32.38
2022-09-02T20:02:50.378Z,32.06
2022-09-02T20:05:26.421Z,32.21
2022-09-02T20:07:55.292Z,30.99
2022-09-02T20:10:26.906Z,32.12
2022-09-02T20:12:59.341Z,31.36
2022-09-02T20:15:27.797Z,32.13
2022-09-02T20:18:19.590Z,32.58
2022-09-02T20:20:51.710Z,31.77
2022-09-02T20:23:21.507Z,33.17
2022-09-02T20:26:24.148Z,33.31
2022-09-02T20:29:07.572Z,33.16
2022-09-02T20:32:15.976Z,32.48
2022-09-02T20:35:05.331Z,31.75
2022-09-02T20:37:52.141Z,32.35
2022-09-02T20:40:58.670Z,32.37
2022-09-02T20:43:38.913Z,33.47
2022-09-02T20:46:27.042Z,33.03
2022-09-02T20:49:14.164Z,31.69
2022-09-02T20:52:07.554Z,31.32
2022-09-02T20:54:53.387Z,33.25
2022-09-02T20:57:37.196Z,32.78
2022-09-02T21:00:19.902Z,32.69
2022-09-02T21:02:57.486Z,32.43
2022-09-02T21:05:52.734Z,32.01
2022-09-02T21:09:10.782Z,33.22
2022-09-02T21:11:48.065Z,32.18
2022-09-02T21:14:23.492Z,32.82
2022-09-02T21:17:05.079Z,31.71
2022-09-02T21:19:44.813Z,33.28
2022-09-02T21:22:25.728Z,32.15
2022-09-02T21:25:00.158Z,31.54
2022-09-02T21:27:59.334Z,32.83
2022-09-02T21:30:38.851Z,32.73
2022-09-02T21:33:10.824Z,31.68
2022-09-02T21:35:50.244Z,32.07
2022-09-02T21:38:44.817Z,31.69
2022-09-02T21:41:32.899Z,33.22
2022-09-02T21:44:10.585Z,31.99
2022-09-02T21:47:15.907Z,32.19
2022-09-02T21:50:19.970Z,33.01
2022-09-02T21:53:19.265Z,33.10
2022-09-02T21:56:23.111Z,32.55
2022-09-02T21:59:18.104Z,32.09
2022-09-02T22:02:10.306Z,32.32
2022-09-02T22:05:02.478Z,33.18
2022-09-02T22:07:49.799Z,32.26
2022-09-02T22:10:40.624Z,32.92
2022-09-02T22:13:10.840Z,32.09
2022-09-02T22:15:58.267Z,32.65
2022-09-02T22:18:41.367Z,32.16
2022-09-02T22:21:50.080Z,32.17
2022-09-02T22:24:27.050Z,33.71
2022-09-02T22:27:23.738Z,32.01
2022-09-02T22:30:15.735Z,33.36
2022-09-02T22:32:49.124Z,33.74
2022-09-02T22:35:41.648Z,33.13
2022-09-02T22:38:28.369Z,33.56
2022-09-02T22:41:27.068Z,33.87
2022-09-02T22:44:02.473Z,32.55
2022-09-02T22:47:38.823Z,32.09
2022-09-02T22:50:32.946Z,33.65
2022-09-02T22:53:01.813Z,32.66
2022-09-02T22:55:48.386Z,32.49
2022-09-02T22:58:58.977Z,32.46
2022-09-02T23:01:51.884Z,34.03
2022-09-02T23:04:53.375Z,33.67
2022-09-02T23:07:21.932Z,32.86
2022-09-02T23:09:57.218Z,33.52
2022-09-02T23:12:44.140Z,33.28
2022-09-02T23:15:33.239Z,32.77
2022-09-02T23:18:13.032Z,33.40
2022-09-02T23:21:20.537Z,33.15
2022-09-02T23:24:03.417Z,32.76
2022-09-02T23:27:03.697Z,33.37
2022-09-02T23:29:34.297Z,34.28
2022-09-02T23:32:43.863Z,33.77
2022-09-02T23:35:26.616Z,34.47
2022-09-02T23:38:43.287Z,33.08
2022-09-02T23:41:12.705Z,32.99
2022-09-02T23:43:43.996Z,32.52
2022-09-02T23:46:33.624Z,33.48
2022-09-02T23:49:07.204Z,33.00
2022-09-02T23:51:48.940Z,33.30
2022-09-02T23:54:40.115Z,32.93
2022-09-02T23:57:46.282Z,32.85
